createdAt,value
2022-12-29T00:02:25.514Z,7.84
2022-12-29T00:05:01.397Z,7.86
2022-12-29T00:07:31.310Z,8.06
2022-12-29T00:09:58.857Z,8.02
2022-12-29T00:12:29.660Z,7.73
2022-12-29T00:14:57.075Z,7.81
2022-12-29T00:17:38.895Z,7.93
2022-12-29T00:20:16.753Z,8.06
2022-12-29T00:25:25.608Z,7.99
2022-12-29T00:28:00.295Z,7.92
2022-12-29T00:30:31.867Z,7.86
2022-12-29T00:32:59.455Z,7.76
2022-12-29T00:35:32.904Z,8.11
2022-12-29T00:38:03.708Z,8.33
2022-12-29T00:40:32.360Z,8.51
2022-12-29T00:42:59.881Z,8.27
2022-12-29T00:45:28.524Z,8.51
2022-12-29T00:48:00.476Z,8.59
2022-12-29T00:50:35.933Z,8.70
2022-12-29T00:53:04.361Z,8.58
2022-12-29T00:55:32.896Z,8.68
2022-12-29T00:58:09.849Z,8.79
2022-12-29T01:00:49.196Z,8.97
2022-12-29T01:03:19.718Z,9.09
2022-12-29T01:05:56.159Z,9.24
2022-12-29T01:08:48.610Z,9.33
2022-12-29T01:20:59.312Z,9.23
2022-12-29T01:30:59.504Z,9.04
2022-12-29T01:33:36.331Z,9.06
2022-12-29T01:45:26.329Z,9.23
2022-12-29T01:54:16.296Z,8.90
2022-12-29T01:56:59.112Z,8.71
2022-12-29T01:59:43.264Z,8.67
2022-12-29T02:02:41.475Z,8.71
2022-12-29T02:05:45.315Z,8.74
2022-12-29T02:09:13.251Z,9.09
2022-12-29T02:15:27.822Z,9.30
2022-12-29T02:25:07.884Z,9.41
2022-12-29T02:32:07.825Z,9.49
2022-12-29T02:39:00.474Z,9.52
2022-12-29T03:06:50.572Z,9.30
2022-12-29T03:11:32.273Z,9.27
2022-12-29T03:13:22.537Z,9.20
2022-12-29T03:22:41.759Z,9.15
2022-12-29T03:41:18.983Z,9.14
2022-12-29T03:56:31.717Z,8.88
2022-12-29T04:08:06.506Z,8.89
2022-12-29T04:11:02.688Z,8.85
2022-12-29T04:17:15.236Z,8.85
2022-12-29T04:19:34.276Z,8.96
2022-12-29T04:26:14.842Z,8.90
2022-12-29T04:28:59.737Z,9.01
2022-12-29T04:34:59.876Z,9.00
2022-12-29T04:50:18.676Z,8.85
2022-12-29T04:59:19.182Z,8.95
2022-12-29T05:05:01.520Z,8.94
2022-12-29T05:08:00.925Z,8.91
2022-12-29T05:11:05.431Z,8.89
2022-12-29T05:14:44.418Z,8.84
2022-12-29T05:21:17.642Z,8.93
2022-12-29T05:27:44.662Z,8.76
2022-12-29T05:40:24.583Z,8.80
2022-12-29T05:43:46.384Z,8.91
2022-12-29T05:46:18.991Z,8.88
2022-12-29T05:52:33.791Z,8.85
2022-12-29T06:01:00.208Z,8.72
2022-12-29T06:03:52.253Z,8.63
2022-12-29T06:19:15.228Z,8.82
2022-12-29T06:29:28.057Z,8.88
2022-12-29T06:31:42.874Z,8.95
2022-12-29T06:37:11.354Z,8.85
2022-12-29T06:46:20.866Z,8.73
2022-12-29T06:52:33.592Z,8.86
2022-12-29T06:59:21.459Z,8.84
2022-12-29T07:33:20.599Z,8.86
2022-12-29T07:42:16.975Z,8.88
2022-12-29T07:46:00.716Z,8.98
2022-12-29T07:57:56.544Z,8.97
2022-12-29T08:01:00.279Z,8.83
2022-12-29T08:06:54.850Z,8.81
2022-12-29T08:24:47.188Z,8.84
2022-12-29T08:31:16.640Z,9.02
2022-12-29T09:03:37.489Z,17.60
2022-12-29T09:06:28.793Z,14.39
2022-12-29T09:09:15.679Z,13.32
2022-12-29T09:12:00.040Z,11.92
2022-12-29T09:14:51.270Z,10.59
2022-12-29T09:17:28.101Z,9.73
2022-12-29T09:27:19.420Z,10.25
2022-12-29T09:30:19.188Z,9.92
2022-12-29T09:36:11.747Z,9.29
2022-12-29T09:38:44.616Z,9.02
2022-12-29T09:48:11.751Z,9.30
2022-12-29T10:17:18.070Z,10.09
2022-12-29T10:20:04.296Z,10.16
2022-12-29T10:23:04.965Z,10.18
2022-12-29T10:25:44.217Z,10.16
2022-12-29T10:28:37.524Z,10.20
2022-12-29T10:31:10.037Z,10.24
2022-12-29T10:33:45.967Z,10.25
2022-12-29T10:36:42.266Z,10.42
2022-12-29T10:39:34.426Z,10.45
2022-12-29T10:42:22.102Z,10.55
2022-12-29T10:44:54.351Z,10.73
2022-12-29T10:47:28.133Z,10.98
2022-12-29T10:49:55.428Z,11.02
2022-12-29T10:52:25.768Z,10.99
2022-12-29T10:54:59.200Z,11.02
2022-12-29T10:57:34.295Z,11.22
2022-12-29T11:00:02.894Z,11.30
2022-12-29T11:02:38.855Z,11.36
2022-12-29T11:05:29.008Z,11.38
2022-12-29T11:08:08.171Z,11.31
2022-12-29T11:10:36.434Z,11.21
2022-12-29T11:13:16.057Z,11.17
2022-12-29T11:18:39.049Z,11.38
2022-12-29T11:21:10.159Z,11.53
2022-12-29T11:23:39.575Z,11.39
2022-12-29T11:26:10.180Z,11.23
2022-12-29T11:28:43.791Z,11.20
2022-12-29T11:31:12.444Z,11.42
2022-12-29T11:33:43.503Z,11.55
2022-12-29T11:42:21.380Z,11.34
2022-12-29T11:44:54.294Z,11.47
2022-12-29T11:47:30.229Z,11.48
2022-12-29T11:50:00.951Z,11.71
2022-12-29T11:55:22.833Z,11.01
2022-12-29T12:00:29.433Z,10.81
2022-12-29T12:03:03.229Z,10.77
2022-12-29T12:05:37.716Z,10.94
2022-12-29T12:08:20.660Z,11.03
2022-12-29T12:11:21.106Z,11.08
2022-12-29T12:14:01.867Z,10.94
2022-12-29T12:16:35.269Z,10.79
2022-12-29T12:19:25.404Z,10.88
2022-12-29T12:21:55.670Z,11.07
2022-12-29T12:24:40.200Z,11.26
2022-12-29T12:27:23.846Z,11.32
2022-12-29T12:30:02.801Z,11.43
2022-12-29T12:32:47.808Z,11.52
2022-12-29T12:35:37.683Z,11.72
2022-12-29T12:38:48.775Z,11.77
2022-12-29T12:41:26.103Z,11.84
2022-12-29T12:44:00.994Z,11.78
2022-12-29T12:46:39.660Z,11.81
2022-12-29T12:49:35.873Z,11.79
2022-12-29T12:52:08.238Z,11.80
2022-12-29T12:54:47.797Z,11.85
2022-12-29T12:57:34.821Z,11.93
2022-12-29T13:00:09.659Z,11.98
2022-12-29T13:02:51.164Z,12.00
2022-12-29T13:05:26.634Z,12.02
2022-12-29T13:08:05.820Z,12.00
2022-12-29T13:10:53.467Z,11.98
2022-12-29T13:13:23.236Z,12.14
2022-12-29T13:16:14.911Z,12.05
2022-12-29T13:18:53.742Z,12.03
2022-12-29T13:21:27.290Z,11.92
2022-12-29T13:24:02.946Z,11.85
2022-12-29T13:26:36.519Z,11.97
2022-12-29T13:29:35.698Z,11.83
2022-12-29T13:32:05.583Z,11.75
2022-12-29T13:34:41.373Z,11.73
2022-12-29T13:37:13.538Z,11.74
2022-12-29T13:39:44.206Z,11.69
2022-12-29T13:42:10.879Z,11.70
2022-12-29T13:44:47.796Z,11.61
2022-12-29T13:47:31.978Z,11.49
2022-12-29T13:49:59.116Z,11.48
2022-12-29T13:52:44.661Z,11.48
2022-12-29T13:55:30.869Z,11.48
2022-12-29T13:58:10.558Z,11.49
2022-12-29T14:00:49.506Z,11.43
2022-12-29T14:03:30.571Z,11.40
2022-12-29T14:06:06.744Z,11.33
2022-12-29T14:08:34.833Z,11.40
2022-12-29T14:11:06.664Z,11.38
2022-12-29T14:13:33.323Z,11.46
2022-12-29T14:16:00.117Z,11.48
2022-12-29T14:18:32.457Z,11.46
2022-12-29T14:20:59.767Z,11.46
2022-12-29T14:23:35.495Z,11.45
2022-12-29T14:26:08.144Z,11.44
2022-12-29T14:28:41.939Z,11.60
2022-12-29T14:31:17.453Z,11.64
2022-12-29T14:34:12.029Z,11.64
2022-12-29T14:37:03.721Z,11.54
2022-12-29T14:39:41.055Z,11.50
2022-12-29T14:42:10.674Z,11.54
2022-12-29T14:45:01.343Z,11.42
2022-12-29T14:47:30.993Z,11.20
2022-12-29T14:50:04.294Z,11.25
2022-12-29T14:52:30.954Z,11.12
2022-12-29T14:55:20.907Z,10.94
2022-12-29T14:57:58.416Z,10.84
2022-12-29T15:00:27.477Z,10.88
2022-12-29T15:03:15.988Z,10.85
2022-12-29T15:05:58.134Z,10.93
2022-12-29T15:08:29.478Z,10.94
2022-12-29T15:11:28.211Z,10.90
2022-12-29T15:13:54.874Z,10.92
2022-12-29T15:16:23.388Z,10.96
2022-12-29T15:18:50.342Z,11.04
2022-12-29T15:21:17.041Z,11.04
2022-12-29T15:23:45.093Z,10.97
2022-12-29T15:26:11.767Z,10.93
2022-12-29T15:28:42.674Z,10.89
2022-12-29T15:31:20.057Z,10.85
2022-12-29T15:33:50.216Z,10.84
2022-12-29T15:36:28.249Z,10.84
2022-12-29T15:38:55.016Z,10.89
2022-12-29T15:41:43.061Z,10.90
2022-12-29T15:44:18.735Z,10.95
2022-12-29T15:46:45.408Z,10.97
2022-12-29T15:49:13.782Z,10.95
2022-12-29T15:51:40.446Z,10.94
2022-12-29T15:54:07.673Z,10.90
2022-12-29T15:56:34.302Z,10.92
2022-12-29T15:59:01.238Z,10.77
2022-12-29T16:01:32.695Z,10.60
2022-12-29T16:04:00.328Z,10.56
2022-12-29T16:06:37.614Z,10.52
2022-12-29T16:09:17.597Z,10.49
2022-12-29T16:11:48.901Z,10.52
2022-12-29T16:14:18.560Z,10.61
2022-12-29T16:16:45.678Z,10.63
2022-12-29T16:19:36.883Z,10.63
2022-12-29T16:22:04.040Z,10.64
2022-12-29T16:24:32.427Z,10.77
2022-12-29T16:27:08.947Z,10.82
2022-12-29T16:29:35.627Z,10.77
2022-12-29T16:32:02.277Z,10.79
2022-12-29T16:34:33.428Z,10.78
2022-12-29T16:37:25.511Z,10.86
2022-12-29T16:39:52.257Z,10.79
2022-12-29T16:42:50.800Z,10.80
2022-12-29T16:45:21.510Z,10.70
2022-12-29T16:48:07.963Z,10.70
2022-12-29T16:50:36.564Z,10.73
2022-12-29T16:53:04.110Z,10.70
2022-12-29T16:55:30.805Z,10.69
2022-12-29T16:57:57.551Z,10.78
2022-12-29T17:00:33.630Z,10.80
2022-12-29T17:03:04.299Z,10.86
2022-12-29T17:05:31.048Z,10.99
2022-12-29T17:07:57.716Z,11.03
2022-12-29T17:10:24.392Z,10.88
2022-12-29T17:12:51.066Z,10.82
2022-12-29T17:15:28.086Z,10.78
2022-12-29T17:17:55.799Z,10.76
2022-12-29T17:20:24.557Z,10.78
2022-12-29T17:22:51.639Z,10.83
2022-12-29T17:25:19.621Z,10.87
2022-12-29T17:27:59.771Z,10.81
2022-12-29T17:30:32.849Z,10.75
2022-12-29T17:33:10.669Z,10.68
2022-12-29T17:35:37.351Z,10.65
2022-12-29T17:38:20.944Z,10.60
2022-12-29T17:40:47.653Z,10.60
2022-12-29T17:43:14.886Z,10.62
2022-12-29T17:45:41.677Z,10.66
2022-12-29T17:48:12.269Z,10.63
2022-12-29T17:50:38.939Z,10.64
2022-12-29T17:53:06.742Z,10.62
2022-12-29T17:55:38.099Z,10.58
2022-12-29T17:58:21.027Z,10.53
2022-12-29T18:00:48.526Z,10.58
2022-12-29T18:03:25.565Z,10.70
2022-12-29T18:05:52.356Z,10.74
2022-12-29T18:08:19.026Z,10.71
2022-12-29T18:10:45.699Z,10.71
2022-12-29T18:13:22.508Z,10.73
2022-12-29T18:15:49.285Z,10.74
2022-12-29T18:18:18.014Z,10.73
2022-12-29T18:20:44.985Z,10.70
2022-12-29T18:23:22.865Z,10.68
2022-12-29T18:25:57.676Z,10.61
2022-12-29T18:28:24.323Z,10.52
2022-12-29T18:30:51.287Z,10.59
2022-12-29T18:33:22.575Z,10.55
2022-12-29T18:35:55.554Z,10.55
2022-12-29T18:38:25.718Z,10.52
2022-12-29T18:40:52.623Z,10.50
2022-12-29T18:43:19.532Z,10.50
2022-12-29T18:45:46.233Z,10.51
2022-12-29T18:48:13.752Z,10.46
2022-12-29T18:50:40.651Z,10.42
2022-12-29T18:53:07.387Z,10.43
2022-12-29T18:55:34.058Z,10.40
2022-12-29T18:58:00.671Z,10.32
2022-12-29T19:00:27.305Z,10.32
2022-12-29T19:02:54.015Z,10.23
2022-12-29T19:05:27.802Z,10.19
2022-12-29T19:07:54.543Z,10.13
2022-12-29T19:10:22.207Z,10.11
2022-12-29T19:12:48.957Z,10.15
2022-12-29T19:15:23.843Z,10.09
2022-12-29T19:18:16.225Z,10.15
2022-12-29T19:20:40.678Z,10.12
2022-12-29T19:23:11.961Z,10.11
2022-12-29T19:25:38.960Z,10.06
2022-12-29T19:28:07.450Z,10.03
2022-12-29T19:30:34.185Z,10.05
2022-12-29T19:33:05.301Z,10.11
2022-12-29T19:35:35.232Z,10.13
2022-12-29T19:38:02.899Z,10.12
2022-12-29T19:40:29.627Z,10.17
2022-12-29T19:42:56.423Z,10.11
2022-12-29T19:45:23.209Z,10.17
2022-12-29T19:47:51.831Z,10.19
2022-12-29T19:50:18.505Z,10.13
2022-12-29T19:52:45.329Z,10.13
2022-12-29T19:55:16.169Z,10.19
2022-12-29T19:57:46.038Z,10.23
2022-12-29T20:00:13.127Z,10.23
2022-12-29T20:02:40.057Z,10.23
2022-12-29T20:05:07.265Z,10.26
2022-12-29T20:07:38.242Z,10.20
2022-12-29T20:10:08.817Z,10.17
2022-12-29T20:12:37.860Z,10.18
2022-12-29T20:15:07.273Z,10.16
2022-12-29T20:20:23.722Z,10.15
2022-12-29T20:22:50.373Z,10.11
2022-12-29T20:25:47.478Z,10.15
2022-12-29T20:28:03.904Z,10.09
2022-12-29T20:30:30.697Z,10.14
2022-12-29T20:32:57.545Z,10.08
2022-12-29T20:35:25.771Z,10.17
2022-12-29T20:37:52.466Z,10.26
2022-12-29T20:40:19.133Z,10.30
2022-12-29T20:42:46.267Z,10.10
2022-12-29T20:45:12.902Z,10.04
2022-12-29T20:47:39.547Z,10.06
2022-12-29T20:50:09.030Z,10.04
2022-12-29T20:52:39.542Z,10.05
2022-12-29T20:55:06.415Z,10.09
2022-12-29T20:57:57.130Z,10.12
2022-12-29T21:00:22.628Z,10.12
2022-12-29T21:02:49.855Z,10.13
2022-12-29T21:05:25.695Z,10.11
2022-12-29T21:07:54.070Z,10.14
2022-12-29T21:10:21.052Z,10.12
2022-12-29T21:12:48.004Z,10.13
2022-12-29T21:15:16.448Z,10.16
2022-12-29T21:17:43.828Z,10.13
2022-12-29T21:20:11.557Z,10.21
2022-12-29T21:22:38.210Z,10.21
2022-12-29T21:25:05.128Z,10.24
2022-12-29T21:27:34.981Z,10.25
2022-12-29T21:30:01.694Z,10.22
2022-12-29T21:32:28.422Z,10.21
2022-12-29T21:34:55.750Z,10.16
2022-12-29T21:37:23.852Z,10.16
2022-12-29T21:39:51.075Z,10.26
2022-12-29T21:42:17.730Z,10.29
2022-12-29T21:44:44.399Z,10.24
2022-12-29T21:47:11.216Z,10.19
2022-12-29T21:49:37.863Z,10.21
2022-12-29T21:52:04.600Z,10.17
2022-12-29T21:54:31.314Z,10.08
2022-12-29T21:56:58.263Z,10.00
2022-12-29T21:59:24.927Z,9.99
2022-12-29T22:01:51.794Z,9.98
2022-12-29T22:04:20.152Z,9.95
2022-12-29T22:06:46.851Z,9.96
2022-12-29T22:09:13.563Z,9.82
2022-12-29T22:11:40.233Z,9.73
2022-12-29T22:14:09.127Z,9.76
2022-12-29T22:16:35.807Z,9.79
2022-12-29T22:19:02.516Z,9.81
2022-12-29T22:21:29.416Z,9.80
2022-12-29T22:23:56.145Z,9.77
2022-12-29T22:26:22.807Z,9.77
2022-12-29T22:28:50.752Z,9.79
2022-12-29T22:31:25.194Z,9.78
2022-12-29T22:33:51.923Z,9.73
2022-12-29T22:36:19.389Z,9.72
2022-12-29T22:38:46.286Z,9.73
2022-12-29T22:41:12.938Z,9.65
2022-12-29T22:43:39.590Z,9.54
2022-12-29T22:46:08.487Z,9.59
2022-12-29T22:48:35.223Z,9.53
2022-12-29T22:51:02.317Z,9.58
2022-12-29T22:53:29.013Z,9.58
2022-12-29T22:56:07.466Z,9.60
2022-12-29T22:58:47.008Z,9.61
2022-12-29T23:01:14.844Z,9.62
2022-12-29T23:03:41.679Z,9.60
2022-12-29T23:06:10.404Z,9.57
2022-12-29T23:08:37.787Z,9.57
2022-12-29T23:11:06.341Z,9.59
2022-12-29T23:13:33.364Z,9.61
2022-12-29T23:16:00.664Z,9.64
2022-12-29T23:18:27.329Z,9.72
2022-12-29T23:20:56.917Z,9.73
2022-12-29T23:23:23.695Z,9.78
2022-12-29T23:25:50.501Z,9.80
2022-12-29T23:28:21.259Z,9.82
2022-12-29T23:30:48.069Z,9.79
2022-12-29T23:33:16.097Z,9.81
2022-12-29T23:35:42.883Z,9.87
2022-12-29T23:38:09.530Z,9.81
2022-12-29T23:40:39.174Z,9.79
2022-12-29T23:43:05.853Z,9.77
2022-12-29T23:45:36.474Z,9.73
2022-12-29T23:48:03.574Z,9.78
2022-12-29T23:50:30.219Z,9.76
2022-12-29T23:52:56.977Z,9.87
2022-12-29T23:55:23.730Z,9.77
2022-12-29T23:57:50.420Z,9.78
